Absecon Heights, New Jersey
Current Conditions -  °F | °C
As of 5:43 AM on Monday 26 Jan 2015 (Local Time) from KACY Reporting Station
Light Snow Light Snow  
Wind Chill: 18°   Ceiling: 3100
Heat Index: 31°   Visibility: 4mi
Dew Point: 27°   Wind: 21mph
Humidity: 85%   Direction: 50°NE
Pressure: 29.89"   Gusts: 26mph
Location:  39.4315°N, 74.5003°W
Report Text: KACY 261043Z AUTO 05018G23KT 4SM -SN BR SCT012 OVC031 M01/M03 A2989 RMK AO2 PK WND 05026/1011 P0000 T10061028 TSNO
Loading
Personal Weather Stations






























Interactive Weather Map New forecast layout! Learn more

10-Day Weather Forecast

Advertisements
Track Severe Weather on mobile